Time;durP1;ratioP1;P1;durP2;ratioP2;P2;SDS_P1;SDS_P2;PMS_P1;PMS_P2;Temp;Humidity;BMP_temperature;BMP_pressure;BME280_temperature;BME280_humidity;BME280_pressure;Samples;Min_cycle;Max_cycle;Signal;HPM_P1;HPM_P2
2022/09/21 00:01:26;;;;;;;12.88;5.22;;;;;;;-143.48;76.14;80021.50;5075694;28;20037;-46
2022/09/21 00:03:55;;;;;;;11.32;4.43;;;;;;;-143.48;76.45;80019.50;5057812;28;20024;-42
2022/09/21 00:06:23;;;;;;;8.32;4.55;;;;;;;-143.48;76.30;80011.56;5075582;28;20032;-45
2022/09/21 00:08:49;;;;;;;15.73;4.07;;;;;;;-143.48;76.35;80009.59;5075539;28;20406;-45
2022/09/21 00:11:23;;;;;;;7.90;3.83;;;;;;;-143.48;76.15;80003.63;5057624;28;20028;-43
2022/09/21 00:13:52;;;;;;;10.82;3.60;;;;;;;-143.48;76.25;79995.69;5075581;28;20492;-44
2022/09/21 00:16:17;;;;;;;8.55;3.25;;;;;;;-143.48;75.80;80009.59;5075923;28;20035;-44
2022/09/21 00:18:42;;;;;;;7.47;3.25;;;;;;;-143.48;75.83;80029.44;5076117;28;20028;-43
2022/09/21 00:21:10;;;;;;;13.63;3.30;;;;;;;-143.48;75.93;80045.31;5075464;28;20528;-45
2022/09/21 00:23:36;;;;;;;10.82;2.92;;;;;;;-143.48;75.77;80063.16;5076200;28;20028;-45
2022/09/21 00:26:08;;;;;;;8.93;3.10;;;;;;;-143.48;76.22;80065.13;5075305;28;20025;-45
2022/09/21 00:28:34;;;;;;;7.82;3.00;;;;;;;-143.48;76.33;80071.09;5075587;28;20051;-45
2022/09/21 00:31:03;;;;;;;7.57;2.83;;;;;;;-143.48;76.80;80067.13;5075182;28;20020;-42
2022/09/21 00:33:28;;;;;;;9.02;3.28;;;;;;;-143.48;76.64;80069.09;5075406;28;20111;-45
2022/09/21 00:35:53;;;;;;;6.88;3.13;;;;;;;-143.48;76.46;80061.16;5075077;28;20353;-45
2022/09/21 00:38:19;;;;;;;9.98;3.28;;;;;;;-143.48;75.86;80065.13;5075608;28;20424;-45
2022/09/21 00:40:44;;;;;;;6.25;3.10;;;;;;;-143.48;76.37;80077.03;5075034;28;20049;-44
2022/09/21 00:43:14;;;;;;;7.50;3.20;;;;;;;-143.48;76.77;80073.06;5074856;28;20151;-44
2022/09/21 00:45:41;;;;;;;6.60;3.25;;;;;;;-143.48;76.71;80065.13;5075167;28;20020;-44
2022/09/21 00:48:07;;;;;;;10.95;3.40;;;;;;;-143.48;76.54;80073.06;5075044;28;20053;-44
2022/09/21 00:50:33;;;;;;;7.63;3.22;;;;;;;-143.48;76.25;80065.13;5074851;28;20099;-43
2022/09/21 00:52:59;;;;;;;5.35;2.92;;;;;;;-143.48;76.35;80071.09;5074707;28;20016;-43
2022/09/21 00:55:30;;;;;;;8.85;3.50;;;;;;;-143.48;76.17;80075.06;5074688;28;20095;-44
2022/09/21 00:58:01;;;;;;;7.35;3.20;;;;;;;-143.48;75.78;80090.94;5074640;28;20024;-46
2022/09/21 01:00:27;;;;;;;9.90;3.40;;;;;;;-143.48;76.49;80094.91;5074503;28;20036;-45
2022/09/21 01:03:00;;;;;;;5.55;2.70;;;;;;;-143.48;76.40;80090.94;5057297;28;20024;-45
2022/09/21 01:05:25;;;;;;;7.72;3.22;;;;;;;-143.48;76.01;80104.81;5074754;28;20098;-44
2022/09/21 01:07:51;;;;;;;7.43;2.60;;;;;;;-143.48;75.98;80110.78;5074784;28;20463;-44
2022/09/21 01:10:18;;;;;;;7.43;2.70;;;;;;;-143.48;75.87;80126.66;5074608;28;20070;-44
2022/09/21 01:13:08;;;;;;;6.38;2.50;;;;;;;-143.48;76.71;80122.69;5074411;28;20070;-43
2022/09/21 01:15:53;;;;;;;7.15;2.63;;;;;;;-143.48;76.35;80116.72;5074509;28;20058;-44
2022/09/21 01:18:47;;;;;;;5.68;2.42;;;;;;;-143.48;76.38;80118.72;5056400;28;20029;-45
2022/09/21 01:21:25;;;;;;;6.88;2.70;;;;;;;-143.48;76.33;80112.75;5074162;28;20032;-45
2022/09/21 01:24:21;;;;;;;8.05;2.80;;;;;;;-143.48;76.01;80118.72;5074191;28;20020;-44
2022/09/21 01:27:31;;;;;;;8.30;2.80;;;;;;;-143.48;76.64;80124.66;5074101;28;20032;-43
2022/09/21 01:30:06;;;;;;;6.43;2.60;;;;;;;-143.48;76.17;80130.63;4973425;28;20039;-44
2022/09/21 01:32:40;;;;;;;9.88;2.78;;;;;;;-143.48;76.21;80144.50;5065344;28;20085;-43
2022/09/21 01:35:16;;;;;;;4.75;2.55;;;;;;;-143.48;76.41;80142.53;5074484;28;20020;-44
2022/09/21 01:37:46;;;;;;;7.97;3.05;;;;;;;-143.48;76.20;80138.56;5074050;28;20059;-44
2022/09/21 01:40:27;;;;;;;5.55;2.53;;;;;;;-143.48;75.39;80164.34;5055941;28;20029;-44
2022/09/21 01:42:54;;;;;;;8.73;2.45;;;;;;;-143.48;76.14;80168.31;5073803;28;20032;-44
2022/09/21 01:45:30;;;;;;;6.40;2.58;;;;;;;-143.48;76.09;80170.28;5074402;28;20409;-43
2022/09/21 01:47:58;;;;;;;9.40;2.80;;;;;;;-143.48;75.72;80184.19;5073997;28;20360;-43
2022/09/21 01:50:28;;;;;;;11.07;2.60;;;;;;;-143.48;76.36;80196.09;5073911;28;20086;-43
2022/09/21 01:53:17;;;;;;;9.18;2.60;;;;;;;-143.48;76.43;80188.16;5073642;28;20028;-44
2022/09/21 01:55:49;;;;;;;4.25;2.33;;;;;;;-143.48;76.49;80182.19;5073677;28;20479;-45
2022/09/21 01:58:32;;;;;;;7.15;3.00;;;;;;;-143.48;76.20;80180.22;5073506;28;20027;-44
2022/09/21 02:00:58;;;;;;;5.32;2.40;;;;;;;-143.48;76.41;80186.16;5073003;28;20107;-43
2022/09/21 02:03:35;;;;;;;5.68;2.50;;;;;;;-143.48;76.39;80188.16;5073842;28;20032;-44
2022/09/21 02:06:01;;;;;;;10.10;2.50;;;;;;;-143.48;76.03;80178.22;5073822;28;20371;-44
2022/09/21 02:08:31;;;;;;;5.10;2.30;;;;;;;-143.48;75.52;80202.03;5055479;28;20034;-45
2022/09/21 02:10:59;;;;;;;4.35;2.35;;;;;;;-143.48;75.77;80213.94;5073671;28;20036;-43
2022/09/21 02:13:27;;;;;;;5.40;2.20;;;;;;;-143.48;75.89;80213.94;5073551;28;20413;-45
2022/09/21 02:16:09;;;;;;;6.75;2.70;;;;;;;-143.48;76.26;80196.09;5073684;28;20020;-46
2022/09/21 02:18:59;;;;;;;5.55;2.30;;;;;;;-143.48;75.51;80215.94;5073626;28;20356;-43
2022/09/21 02:21:33;;;;;;;4.10;2.00;;;;;;;-143.48;76.39;80215.94;5073438;28;20479;-44
2022/09/21 02:24:20;;;;;;;5.32;2.20;;;;;;;-143.48;75.87;80213.94;5073308;28;20032;-45
2022/09/21 02:26:52;;;;;;;8.27;2.30;;;;;;;-143.48;76.57;80206.00;5073534;28;20425;-45
2022/09/21 02:29:45;;;;;;;5.45;2.38;;;;;;;-143.48;76.07;80194.09;5055266;28;20021;-44
2022/09/21 02:32:36;;;;;;;6.90;2.55;;;;;;;-143.48;75.74;80194.09;5073528;28;20017;-43
2022/09/21 02:35:18;;;;;;;4.50;2.45;;;;;;;-143.48;76.05;80200.06;5055279;28;20387;-45
2022/09/21 02:37:46;;;;;;;5.32;2.47;;;;;;;-143.48;76.00;80200.06;5073434;28;20516;-44
2022/09/21 02:40:29;;;;;;;7.88;2.88;;;;;;;-143.48;75.35;80206.00;5073157;28;20020;-44
2022/09/21 02:43:05;;;;;;;4.47;2.20;;;;;;;-143.48;75.41;80231.81;5073349;28;20035;-45
2022/09/21 02:45:40;;;;;;;3.33;2.28;;;;;;;-143.48;75.15;80223.88;5073408;28;20112;-43
2022/09/21 02:48:15;;;;;;;3.70;1.90;;;;;;;-143.48;74.80;80241.72;5073367;28;20527;-44
2022/09/21 02:50:45;;;;;;;4.65;2.00;;;;;;;-143.48;75.81;80239.75;5073388;28;20117;-44
2022/09/21 02:53:12;;;;;;;3.35;2.00;;;;;;;-143.48;76.12;80229.81;5073018;28;20021;-43
2022/09/21 02:55:39;;;;;;;7.07;2.00;;;;;;;-143.48;76.54;80208.00;5073017;28;20466;-42
2022/09/21 02:58:10;;;;;;;6.10;2.03;;;;;;;-143.48;76.31;80192.13;5073266;28;20025;-44
2022/09/21 03:00:36;;;;;;;5.25;2.10;;;;;;;-143.48;75.13;80196.09;5073041;28;20025;-44
2022/09/21 03:03:16;;;;;;;5.88;2.10;;;;;;;-143.48;75.43;80215.94;5073424;28;20414;-46
2022/09/21 03:05:42;;;;;;;9.57;2.15;;;;;;;-143.48;76.19;80219.91;5073421;28;20024;-46
2022/09/21 03:08:08;;;;;;;3.45;2.15;;;;;;;-143.48;76.22;80219.91;5072953;28;20024;-45
2022/09/21 03:10:34;;;;;;;4.88;2.20;;;;;;;-143.48;76.47;80215.94;5072949;28;20032;-43
2022/09/21 03:13:00;;;;;;;6.97;2.20;;;;;;;-143.48;76.31;80217.91;5074815;28;20074;-45
2022/09/21 03:15:26;;;;;;;6.28;2.40;;;;;;;-143.48;76.32;80213.94;5058505;28;20048;-45
2022/09/21 03:17:52;;;;;;;5.28;2.20;;;;;;;-143.48;76.59;80209.97;5076842;28;20424;-47
2022/09/21 03:20:17;;;;;;;7.55;2.40;;;;;;;-143.48;76.04;80208.00;5058636;28;20482;-44
2022/09/21 03:22:42;;;;;;;5.60;2.10;;;;;;;-143.48;76.51;80209.97;5076683;28;20056;-44
2022/09/21 03:25:11;;;;;;;9.82;2.60;;;;;;;-143.48;76.19;80194.09;5076750;28;20024;-46
2022/09/21 03:27:37;;;;;;;7.68;2.28;;;;;;;-143.48;76.30;80192.13;5076592;28;20024;-45
2022/09/21 03:30:03;;;;;;;3.78;1.85;;;;;;;-143.48;76.20;80182.19;5076659;28;20498;-43
2022/09/21 03:32:28;;;;;;;4.18;2.25;;;;;;;-143.48;75.92;80186.16;5076500;28;20029;-46
2022/09/21 03:34:53;;;;;;;6.53;2.42;;;;;;;-143.48;75.62;80190.13;5076251;28;20047;-46
2022/09/21 03:37:19;;;;;;;4.57;2.42;;;;;;;-143.48;75.56;80194.09;5076284;28;20020;-46
2022/09/21 03:39:46;;;;;;;3.67;2.03;;;;;;;-143.48;76.21;80186.16;5076441;28;20345;-44
2022/09/21 03:42:12;;;;;;;3.65;2.10;;;;;;;-143.48;75.95;80180.22;5076034;28;20039;-44
2022/09/21 03:44:39;;;;;;;3.78;2.05;;;;;;;-143.48;75.92;80184.19;5076385;28;20356;-45
2022/09/21 03:47:05;;;;;;;6.80;2.33;;;;;;;-143.48;76.35;80194.09;5076251;28;20478;-43
2022/09/21 03:49:31;;;;;;;5.90;2.20;;;;;;;-143.48;76.31;80192.13;5076136;28;20048;-45
2022/09/21 03:51:57;;;;;;;3.08;2.00;;;;;;;-143.48;76.16;80186.16;5075951;28;20043;-43
2022/09/21 03:54:22;;;;;;;6.10;2.25;;;;;;;-143.48;76.13;80202.03;5076208;28;20020;-44
2022/09/21 03:56:47;;;;;;;5.65;2.40;;;;;;;-143.48;76.29;80204.03;5076405;28;20029;-44
2022/09/21 03:59:13;;;;;;;4.68;2.13;;;;;;;-143.48;76.06;80204.03;5075757;28;20028;-43
2022/09/21 04:01:38;;;;;;;6.82;2.10;;;;;;;-143.48;76.04;80202.03;5075586;28;20104;-43
2022/09/21 04:04:03;;;;;;;5.35;2.13;;;;;;;-143.48;76.29;80202.03;5075969;28;20111;-44
2022/09/21 04:06:29;;;;;;;6.03;2.08;;;;;;;-143.48;76.09;80204.03;5075785;28;20040;-44
2022/09/21 04:08:55;;;;;;;4.82;2.38;;;;;;;-143.48;76.24;80204.03;5075715;28;20016;-44
2022/09/21 04:11:21;;;;;;;5.65;2.22;;;;;;;-143.48;76.07;80200.06;5057531;28;20025;-45
2022/09/21 04:13:55;;;;;;;5.97;2.33;;;;;;;-143.48;75.76;80196.09;5075534;28;20607;-43
2022/09/21 04:16:24;;;;;;;3.67;2.00;;;;;;;-143.48;75.97;80200.06;5058452;28;20131;-45
2022/09/21 04:18:49;;;;;;;10.82;2.28;;;;;;;-143.48;75.62;80215.94;5075751;28;20103;-45
2022/09/21 04:21:16;;;;;;;5.90;1.90;;;;;;;-143.48;75.85;80209.97;5075547;28;20063;-43
2022/09/21 04:23:42;;;;;;;2.70;2.03;;;;;;;-143.48;75.52;80223.88;5075384;28;20103;-44
2022/09/21 04:26:18;;;;;;;5.47;2.35;;;;;;;-143.48;75.95;80235.78;5075241;28;20044;-43
2022/09/21 04:28:44;;;;;;;5.20;2.22;;;;;;;-143.48;76.07;80243.72;5075799;28;20067;-44
2022/09/21 04:31:09;;;;;;;7.43;2.60;;;;;;;-143.48;75.67;80245.69;5075469;28;20051;-46
2022/09/21 04:33:35;;;;;;;8.32;2.35;;;;;;;-143.48;76.09;80243.72;5075134;28;20486;-43
2022/09/21 04:36:00;;;;;;;6.70;2.42;;;;;;;-143.48;75.83;80251.66;5075434;28;20020;-44
2022/09/21 04:38:26;;;;;;;4.55;2.30;;;;;;;-143.48;75.98;80269.50;5075338;28;20452;-44
2022/09/21 04:40:58;;;;;;;7.72;2.20;;;;;;;-143.48;76.27;80275.44;5075041;28;20463;-43
2022/09/21 04:43:24;;;;;;;7.95;2.35;;;;;;;-143.48;76.41;80281.41;5075215;28;20021;-44
2022/09/21 04:45:50;;;;;;;5.00;2.42;;;;;;;-143.48;76.04;80283.41;5074851;28;20034;-43
2022/09/21 04:48:16;;;;;;;5.00;2.47;;;;;;;-143.48;76.54;80269.50;5075585;28;20024;-45
2022/09/21 04:50:42;;;;;;;6.50;2.40;;;;;;;-143.48;76.45;80271.50;5056785;28;20054;-43
2022/09/21 04:53:08;;;;;;;6.07;2.40;;;;;;;-143.48;76.36;80255.63;5074797;28;20024;-43
2022/09/21 04:55:33;;;;;;;3.65;2.05;;;;;;;-143.48;75.95;80269.50;5056719;28;20085;-45
2022/09/21 04:57:58;;;;;;;4.90;2.13;;;;;;;-143.48;76.41;80277.44;5074938;28;20024;-43
2022/09/21 05:00:25;;;;;;;5.15;2.30;;;;;;;-143.48;76.14;80275.44;5074368;28;20054;-45
2022/09/21 05:02:50;;;;;;;4.57;2.10;;;;;;;-143.48;76.22;80275.44;5056618;28;20108;-44
2022/09/21 05:05:16;;;;;;;6.95;2.45;;;;;;;-143.48;76.43;80281.41;5056571;28;20113;-44
2022/09/21 05:07:41;;;;;;;4.57;2.45;;;;;;;-143.48;76.83;80281.41;5074935;28;20042;-45
2022/09/21 05:10:07;;;;;;;3.80;2.10;;;;;;;-143.48;76.50;80277.44;5074385;28;20048;-45
2022/09/21 05:12:34;;;;;;;8.15;2.25;;;;;;;-143.48;76.14;80291.31;5074335;28;20042;-44
2022/09/21 05:15:00;;;;;;;3.97;2.25;;;;;;;-143.48;76.01;80301.25;5074286;28;20392;-44
2022/09/21 05:17:26;;;;;;;6.40;2.38;;;;;;;-143.48;76.51;80273.47;5056153;28;20386;-44
2022/09/21 05:19:52;;;;;;;9.65;2.97;;;;;;;-143.48;76.35;80299.25;5073328;28;20031;-44
2022/09/21 05:22:18;;;;;;;4.70;2.85;;;;;;;-143.48;76.62;80291.31;5073283;28;20028;-44
2022/09/21 05:24:44;;;;;;;8.00;2.90;;;;;;;-143.48;76.85;80293.31;5073956;28;20028;-45
2022/09/21 05:27:09;;;;;;;7.53;2.90;;;;;;;-143.48;76.25;80289.34;5074130;28;20035;-51
2022/09/21 05:29:35;;;;;;;4.40;2.67;;;;;;;-143.48;75.86;80299.25;5074025;28;20024;-43
2022/09/21 05:32:11;;;;;;;5.60;2.72;;;;;;;-143.48;76.09;80295.28;5074126;28;20047;-43
2022/09/21 05:34:54;;;;;;;6.95;3.38;;;;;;;-143.48;76.14;80291.31;5073493;28;20028;-43
2022/09/21 05:37:37;;;;;;;11.75;2.80;;;;;;;-143.48;75.62;80289.34;5073907;28;20053;-46
2022/09/21 05:40:04;;;;;;;8.73;2.90;;;;;;;-143.48;75.15;80297.28;5073824;28;20029;-43
2022/09/21 05:42:30;;;;;;;11.88;3.08;;;;;;;-143.48;75.84;80277.44;5073689;28;20036;-45
2022/09/21 05:44:55;;;;;;;7.55;2.85;;;;;;;-143.48;75.26;80283.41;5073858;28;20021;-45
2022/09/21 05:48:01;;;;;;;7.70;2.80;;;;;;;-143.48;75.09;80283.41;5073738;28;20048;-44
2022/09/21 05:50:33;;;;;;;8.27;2.97;;;;;;;-143.48;74.96;80271.50;5073890;28;20348;-45
2022/09/21 05:53:23;;;;;;;9.57;3.33;;;;;;;-143.48;75.33;80279.41;5073502;28;20027;-44
2022/09/21 05:55:59;;;;;;;9.93;3.17;;;;;;;-143.48;75.12;80277.44;5073581;28;20020;-46
2022/09/21 05:58:43;;;;;;;7.75;3.22;;;;;;;-143.48;74.56;80271.50;5073512;28;20471;-44
2022/09/21 06:01:08;;;;;;;;;;;;;;;-143.48;74.80;80265.53;5073942;28;20054;-45
2022/09/21 06:03:35;;;;;;;6.80;3.03;;;;;;;-143.48;75.02;80267.53;5073938;28;19916;-45
2022/09/21 06:06:01;;;;;;;14.30;3.88;;;;;;;-143.48;74.37;80257.59;5073237;28;20299;-45
2022/09/21 06:08:26;;;;;;;5.65;2.80;;;;;;;-143.48;74.03;80237.75;5055326;28;20063;-45
2022/09/21 06:10:53;;;;;;;5.30;2.78;;;;;;;-143.48;73.89;80233.78;5073774;28;20020;-44
2022/09/21 06:13:19;;;;;;;4.53;2.60;;;;;;;-143.48;73.96;80215.94;5055112;28;20031;-44
2022/09/21 06:15:44;;;;;;;6.93;2.63;;;;;;;-143.48;73.08;80213.94;5073703;28;20028;-43
2022/09/21 06:18:10;;;;;;;6.60;2.55;;;;;;;-143.48;72.94;80200.06;5073686;28;20435;-45
2022/09/21 06:20:36;;;;;;;5.65;2.70;;;;;;;-143.48;73.44;80198.06;5073074;28;20071;-45
2022/09/21 06:23:09;;;;;;;6.07;2.95;;;;;;;-143.48;73.06;80178.22;5073099;28;20073;-45
2022/09/21 06:25:35;;;;;;;7.47;3.22;;;;;;;-143.48;72.59;80176.25;5073306;28;20475;-45
2022/09/21 06:28:11;;;;;;;4.82;2.60;;;;;;;-143.48;72.48;80146.50;5055460;28;20024;-42
2022/09/21 06:30:39;;;;;;;7.82;3.03;;;;;;;-143.48;72.04;80126.66;5073901;28;20028;-46
2022/09/21 06:33:06;;;;;;;4.90;2.67;;;;;;;-143.48;72.21;80110.78;5073327;28;20020;-45
2022/09/21 06:35:34;;;;;;;6.28;2.95;;;;;;;-143.48;71.65;80090.94;5072667;28;20028;-43
2022/09/21 06:38:00;;;;;;;8.30;3.10;;;;;;;-143.48;70.48;80053.22;5072564;28;20028;-45
2022/09/21 06:40:27;;;;;;;6.80;3.55;;;;;;;-143.48;69.17;80021.50;5072367;28;20020;-44
2022/09/21 06:42:56;;;;;;;6.88;2.97;;;;;;;-143.48;68.69;79983.78;5072889;28;20021;-44
2022/09/21 06:45:22;;;;;;;11.15;2.78;;;;;;;-143.48;67.78;79936.19;5073387;28;20479;-43
2022/09/21 06:47:47;;;;;;;16.73;3.60;;;;;;;-143.48;66.34;79926.25;5076127;28;20036;-44
2022/09/21 06:50:13;;;;;;;9.23;3.50;;;;;;;-143.48;65.85;79904.44;5076841;28;20356;-45
2022/09/21 06:52:39;;;;;;;10.07;3.25;;;;;;;-143.48;66.09;79868.72;5076884;28;20055;-43
2022/09/21 06:55:05;;;;;;;16.70;3.33;;;;;;;-143.48;65.63;79829.03;5076877;28;20112;-44
2022/09/21 06:57:30;;;;;;;15.50;3.83;;;;;;;-143.48;64.64;79825.06;5076659;28;20432;-43
2022/09/21 06:59:56;;;;;;;16.85;3.03;;;;;;;-143.48;64.95;79791.34;5077296;28;20086;-42
2022/09/21 07:02:21;;;;;;;17.10;3.47;;;;;;;-143.48;65.22;79771.50;5076578;28;20031;-44
2022/09/21 07:04:46;;;;;;;11.20;3.25;;;;;;;-143.48;65.45;79767.53;5058782;28;20107;-43
2022/09/21 07:07:12;;;;;;;8.40;2.90;;;;;;;-143.48;64.14;79751.66;5076407;28;20410;-44
2022/09/21 07:09:37;;;;;;;14.65;2.90;;;;;;;-143.48;64.87;79741.75;5076689;28;20051;-44
2022/09/21 07:12:03;;;;;;;10.75;2.83;;;;;;;-143.48;65.61;79737.78;5076509;28;20024;-44
2022/09/21 07:14:28;;;;;;;10.52;3.30;;;;;;;-143.48;64.99;79749.69;5076552;28;20048;-44
2022/09/21 07:16:54;;;;;;;12.43;2.88;;;;;;;-143.48;64.69;79751.66;5076446;28;20079;-43
2022/09/21 07:19:19;;;;;;;9.48;2.75;;;;;;;-143.48;63.88;79719.94;5076329;28;20051;-44
2022/09/21 07:21:44;;;;;;;13.70;3.40;;;;;;;-143.48;48.71;79019.69;5076455;28;20016;-42
2022/09/21 07:24:09;;;;;;;10.95;2.50;;;;;;;-143.48;41.67;78690.44;5076139;28;20024;-43
2022/09/21 07:26:36;;;;;;;6.47;2.67;;;;;;;-143.48;39.52;78595.22;5076595;28;20020;-45
2022/09/21 07:29:01;;;;;;;6.03;2.40;;;;;;;-143.48;38.72;78581.34;5076114;28;20095;-43
2022/09/21 07:31:27;;;;;;;10.93;2.80;;;;;;;-143.48;38.26;78535.72;5076450;28;20060;-44
2022/09/21 07:33:57;;;;;;;8.25;2.55;;;;;;;-143.48;38.19;78515.91;5076876;28;20028;-43
2022/09/21 07:36:22;;;;;;;6.15;2.13;;;;;;;-143.48;37.45;78460.38;5075929;28;20097;-43
2022/09/21 07:38:47;;;;;;;9.98;2.50;;;;;;;-143.48;38.22;78468.28;5058246;28;20055;-44
2022/09/21 07:41:13;;;;;;;7.22;2.38;;;;;;;-143.48;38.87;78567.47;5076074;28;20056;-44
2022/09/21 07:43:39;;;;;;;9.45;2.40;;;;;;;-143.48;39.10;78557.53;5075913;28;20530;-44
2022/09/21 07:46:06;;;;;;;6.65;2.28;;;;;;;-143.48;38.27;78523.81;5075917;28;20107;-43
2022/09/21 07:48:31;;;;;;;9.25;2.20;;;;;;;-143.48;39.22;78589.28;5075904;28;20378;-43
2022/09/21 07:51:03;;;;;;;7.30;2.33;;;;;;;-143.48;37.83;78440.53;5075696;28;20024;-44
2022/09/21 07:53:30;;;;;;;;;;;;;;;-143.48;38.50;78537.72;5076073;28;20023;-43
2022/09/21 07:56:03;;;;;;;5.75;1.80;;;;;;;-143.48;38.09;78502.00;5075994;28;19995;-43
2022/09/21 08:01:13;;;;;;;7.90;1.98;;;;;;;-143.48;39.94;78676.53;5076062;28;20040;-43
2022/09/21 08:03:38;;;;;;;6.18;1.80;;;;;;;-143.48;38.21;78529.78;5075467;28;20032;-44
2022/09/21 08:06:04;;;;;;;5.38;1.75;;;;;;;-143.48;36.63;78353.28;5075791;28;20074;-44
2022/09/21 08:08:29;;;;;;;8.20;1.75;;;;;;;-143.48;35.90;78349.31;5075765;28;20065;-44
2022/09/21 08:10:56;;;;;;;5.75;1.42;;;;;;;-143.48;35.69;78379.06;5075393;28;20035;-44
2022/09/21 08:13:21;;;;;;;5.03;1.10;;;;;;;-143.48;36.22;78468.28;5075377;28;20025;-45
2022/09/21 08:15:56;;;;;;;5.75;1.50;;;;;;;-143.48;34.97;78367.16;5075648;28;20448;-45
2022/09/21 08:18:21;;;;;;;5.97;1.50;;;;;;;-143.48;34.83;78337.41;5075765;28;20082;-44
2022/09/21 08:20:55;;;;;;;5.63;1.20;;;;;;;-143.48;34.63;78343.34;5075740;28;20059;-44
2022/09/21 08:23:21;;;;;;;9.50;1.60;;;;;;;-143.48;33.65;78250.16;5075029;28;20290;-44
2022/09/21 08:25:47;;;;;;;4.95;1.45;;;;;;;-143.48;33.43;78168.84;5075662;28;20028;-43
2022/09/21 08:28:13;;;;;;;8.70;1.40;;;;;;;-143.48;33.07;78289.81;5074852;28;20103;-43
2022/09/21 08:30:39;;;;;;;7.43;1.67;;;;;;;-143.48;33.76;78299.72;5056439;28;20035;-43
2022/09/21 08:33:05;;;;;;;6.25;1.55;;;;;;;-143.48;32.60;78236.25;5075628;28;20025;-44
2022/09/21 08:35:31;;;;;;;7.03;1.40;;;;;;;-143.48;34.20;78254.09;5075044;28;20024;-45
2022/09/21 08:37:57;;;;;;;4.75;1.40;;;;;;;-143.48;32.03;78073.66;5057649;28;20446;-45
2022/09/21 08:40:22;;;;;;;4.63;1.23;;;;;;;-143.48;31.86;78137.09;5074489;28;20020;-45
2022/09/21 08:42:54;;;;;;;5.88;1.50;;;;;;;-143.48;32.47;78133.13;5074632;28;20414;-44
2022/09/21 08:45:21;;;;;;;6.05;1.42;;;;;;;-143.48;33.47;78184.69;5074410;28;20099;-44
2022/09/21 08:47:56;;;;;;;4.28;1.27;;;;;;;-143.48;31.24;78028.03;5075137;28;20103;-45
2022/09/21 08:50:31;;;;;;;5.63;1.17;;;;;;;-143.48;32.36;78151.00;5056576;28;20391;-45
2022/09/21 08:53:12;;;;;;;5.05;1.40;;;;;;;-143.48;31.52;78053.81;5073961;28;20028;-43
2022/09/21 08:55:38;;;;;;;3.50;1.05;;;;;;;-143.48;31.10;78089.50;5073914;28;20459;-43
2022/09/21 08:58:14;;;;;;;4.95;1.30;;;;;;;-143.48;31.08;78059.75;5074591;28;20036;-43
2022/09/21 09:00:41;;;;;;;5.28;1.40;;;;;;;-143.48;31.06;78039.94;5073883;28;20029;-44
2022/09/21 09:03:20;;;;;;;6.63;1.50;;;;;;;-143.48;30.86;78107.34;5055967;28;20109;-44
2022/09/21 09:05:54;;;;;;;4.30;1.27;;;;;;;-143.48;31.99;78192.63;5057256;28;20028;-44
2022/09/21 09:08:51;;;;;;;6.30;1.48;;;;;;;-143.48;31.18;78095.47;5056392;28;20024;-42
2022/09/21 09:11:32;;;;;;;7.00;1.27;;;;;;;-143.48;31.70;78149.00;5074800;28;20379;-44
2022/09/21 09:13:59;;;;;;;4.75;1.35;;;;;;;-143.48;31.14;78117.28;5073611;28;20052;-42
2022/09/21 09:16:43;;;;;;;8.65;1.38;;;;;;;-143.48;31.67;78135.13;5073397;28;20099;-44
2022/09/21 09:19:18;;;;;;;5.28;1.15;;;;;;;-143.48;31.72;78145.03;5072696;28;20035;-44
2022/09/21 09:21:45;;;;;;;10.15;1.10;;;;;;;-143.48;31.99;78194.63;5074538;28;20033;-43
2022/09/21 09:24:37;;;;;;;7.68;1.00;;;;;;;-143.48;32.54;78226.34;5074430;28;20027;-45
2022/09/21 09:27:38;;;;;;;9.40;1.17;;;;;;;-143.48;33.59;78230.31;5072124;28;20021;-44
2022/09/21 09:30:12;;;;;;;5.15;1.20;;;;;;;-143.48;34.65;78412.75;5020125;28;20094;-43
2022/09/21 09:32:50;;;;;;;5.13;1.10;;;;;;;-143.48;36.05;78589.28;5073372;28;20534;-44
2022/09/21 09:35:18;;;;;;;6.15;1.05;;;;;;;-143.48;37.09;78692.41;5073773;28;20028;-44
2022/09/21 09:37:45;;;;;;;3.60;1.13;;;;;;;-143.48;36.50;78599.19;5074228;28;20107;-44
2022/09/21 09:40:13;;;;;;;5.28;1.17;;;;;;;-143.48;38.52;78745.97;5056407;28;20025;-43
2022/09/21 09:43:11;;;;;;;6.70;1.70;;;;;;;-143.48;35.87;78611.09;5073837;28;20523;-43
2022/09/21 09:45:42;;;;;;;9.07;1.33;;;;;;;-143.48;37.43;78742.00;5073834;28;20067;-43
2022/09/21 09:48:07;;;;;;;6.07;1.40;;;;;;;-143.48;36.62;78597.22;5072975;28;20051;-43
2022/09/21 09:50:36;;;;;;;3.50;1.20;;;;;;;-143.48;37.17;78690.44;5073351;28;20024;-43
2022/09/21 09:53:08;;;;;;;5.75;1.10;;;;;;;-143.48;36.32;78615.06;5073358;28;20282;-48
2022/09/21 09:55:39;;;;;;;6.25;1.08;;;;;;;-143.48;36.95;78728.13;5073670;28;20032;-44
2022/09/21 09:58:16;;;;;;;8.32;1.15;;;;;;;-143.48;39.29;78862.97;5072868;28;20024;-43
2022/09/21 10:00:42;;;;;;;5.20;1.30;;;;;;;-143.48;38.67;78797.53;5073712;28;20024;-43
2022/09/21 10:03:16;;;;;;;6.70;1.20;;;;;;;-143.48;36.82;78662.66;5038839;28;20058;-43
2022/09/21 10:05:42;;;;;;;5.47;1.08;;;;;;;-143.48;37.37;78734.06;5073751;28;20107;-42
2022/09/21 10:08:35;;;;;;;4.95;1.30;;;;;;;-143.48;36.95;78736.03;5073771;28;20063;-44
2022/09/21 10:11:02;;;;;;;4.20;0.90;;;;;;;-143.48;38.69;78857.03;5073950;28;20455;-44
2022/09/21 10:13:39;;;;;;;7.13;1.15;;;;;;;-143.48;39.12;78837.19;5073395;28;20100;-44
2022/09/21 10:16:18;;;;;;;5.95;1.05;;;;;;;-143.48;39.51;78894.72;5073960;28;20032;-43
2022/09/21 10:18:46;;;;;;;5.47;1.02;;;;;;;-143.48;40.68;78918.53;5073440;28;20020;-43
2022/09/21 10:21:19;;;;;;;5.57;1.40;;;;;;;-143.48;41.50;78932.41;5072820;28;20378;-43
2022/09/21 10:23:48;;;;;;;2.78;0.75;;;;;;;-143.48;41.58;78960.19;5073304;28;20067;-45
2022/09/21 10:26:15;;;;;;;8.45;1.33;;;;;;;-143.48;40.82;79023.66;5073226;28;20104;-42
2022/09/21 10:28:56;;;;;;;3.05;0.90;;;;;;;-143.48;42.41;79061.34;5073348;28;20448;-45
2022/09/21 10:31:23;;;;;;;6.90;1.35;;;;;;;-143.48;42.82;79065.31;5073621;28;20039;-48
2022/09/21 10:34:04;;;;;;;4.55;1.05;;;;;;;-143.48;41.62;79019.69;5074039;28;20031;-43
2022/09/21 10:36:34;;;;;;;6.50;1.40;;;;;;;-143.48;42.61;79039.53;5073317;28;20016;-43
2022/09/21 10:39:21;;;;;;;5.40;1.10;;;;;;;-143.48;42.26;79103.00;5073324;28;20070;-43
2022/09/21 10:42:06;;;;;;;6.57;1.13;;;;;;;-143.48;43.67;79103.00;5072976;28;20040;-45
2022/09/21 10:44:45;;;;;;;3.75;1.17;;;;;;;-143.48;44.88;78974.06;5073171;28;20016;-43
2022/09/21 10:47:41;;;;;;;5.78;1.05;;;;;;;-143.48;40.47;78805.47;5072992;28;20471;-45
2022/09/21 10:50:25;;;;;;;3.70;0.98;;;;;;;-143.48;38.91;78787.63;5073081;28;20060;-43
2022/09/21 10:52:55;;;;;;;4.55;0.85;;;;;;;-143.48;39.16;78787.63;5072978;28;20023;-45
2022/09/21 10:55:22;;;;;;;7.35;1.10;;;;;;;-143.48;37.75;78761.84;5072980;28;20031;-44
2022/09/21 10:57:49;;;;;;;4.63;1.27;;;;;;;-143.48;38.47;78807.44;5072954;28;20032;-50
2022/09/21 11:00:24;;;;;;;7.00;1.10;;;;;;;-143.48;38.57;78880.84;5073231;28;20047;-43
2022/09/21 11:02:51;;;;;;;4.30;0.77;;;;;;;-143.48;38.54;78847.13;5072873;28;20032;-42
2022/09/21 11:05:24;;;;;;;5.03;1.00;;;;;;;-143.48;37.42;78787.63;5072898;28;20024;-43
2022/09/21 11:08:01;;;;;;;4.85;0.90;;;;;;;-143.48;36.57;78698.38;5072943;28;20486;-43
2022/09/21 11:10:38;;;;;;;4.68;1.08;;;;;;;-143.48;36.51;78694.41;5072766;28;20032;-44
2022/09/21 11:13:18;;;;;;;5.53;0.93;;;;;;;-143.48;35.85;78634.91;5073076;28;20028;-42
2022/09/21 11:16:10;;;;;;;3.67;1.10;;;;;;;-143.48;35.75;78662.66;5055159;28;20055;-44
2022/09/21 11:18:49;;;;;;;2.58;0.90;;;;;;;-143.48;37.61;78799.50;5025965;28;20040;-44
2022/09/21 11:21:43;;;;;;;12.25;1.20;;;;;;;-143.48;36.27;78674.56;5072999;28;20033;-44
2022/09/21 11:24:44;;;;;;;4.20;1.05;;;;;;;-143.48;37.14;78666.63;5073275;28;20056;-43
2022/09/21 11:27:31;;;;;;;3.80;1.10;;;;;;;-143.48;36.84;78749.94;5073219;28;20093;-42
2022/09/21 11:30:08;;;;;;;4.55;0.95;;;;;;;-143.48;36.95;78692.41;5072496;28;20067;-43
2022/09/21 11:32:52;;;;;;;3.08;0.85;;;;;;;-143.48;36.65;78720.19;5072574;28;20459;-44
2022/09/21 11:35:40;;;;;;;4.53;1.17;;;;;;;-143.48;35.64;78628.94;5076523;28;20036;-43
2022/09/21 11:38:12;;;;;;;6.20;1.10;;;;;;;-143.48;36.10;78650.75;5076717;28;20387;-43